createdAt,value
2018-05-16T00:02:32.116Z,96702.12
2018-05-16T00:07:25.810Z,96707.44
2018-05-16T00:12:19.576Z,96709.02
2018-05-16T00:17:13.378Z,96713.20
2018-05-16T00:22:07.787Z,96707.63
2018-05-16T00:27:02.177Z,96714.42
2018-05-16T00:31:55.840Z,96720.87
2018-05-16T00:36:49.837Z,96720.12
2018-05-16T00:41:43.589Z,96727.73
2018-05-16T00:46:37.162Z,96731.38
2018-05-16T00:51:32.723Z,96723.21
2018-05-16T01:05:34.474Z,96709.19
2018-05-16T01:10:28.129Z,96713.20
2018-05-16T01:24:29.595Z,96695.14
2018-05-16T01:38:32.102Z,96691.52
2018-05-16T01:43:25.689Z,96697.75
2018-05-16T01:48:19.244Z,96688.31
2018-05-16T01:53:13.170Z,96680.42
2018-05-16T01:58:06.901Z,96679.45
2018-05-16T02:03:00.524Z,96685.77
2018-05-16T02:07:53.981Z,96683.14
2018-05-16T02:12:47.625Z,96688.36
2018-05-16T02:17:41.124Z,96695.34
2018-05-16T02:22:34.767Z,96681.55
2018-05-16T02:27:28.816Z,96679.13
2018-05-16T02:32:23.090Z,96669.19
2018-05-16T02:37:16.686Z,96668.33
2018-05-16T02:42:10.159Z,96664.14
2018-05-16T02:47:03.669Z,96659.95
2018-05-16T02:51:57.255Z,96662.03
2018-05-16T02:56:50.862Z,96667.71
2018-05-16T03:01:44.395Z,96668.13
2018-05-16T03:06:37.926Z,96666.19
2018-05-16T03:11:31.435Z,96657.55
2018-05-16T03:16:24.959Z,96666.33
2018-05-16T03:21:18.518Z,96664.06
2018-05-16T03:26:12.186Z,96652.44
2018-05-16T03:31:05.706Z,96638.52
2018-05-16T03:45:07.915Z,96651.00
2018-05-16T03:50:01.540Z,96650.05
2018-05-16T03:54:55.016Z,96657.30
2018-05-16T04:00:06.141Z,96652.98
2018-05-16T04:04:59.799Z,96654.39
2018-05-16T04:09:53.346Z,96661.29
2018-05-16T04:14:47.083Z,96665.35
2018-05-16T04:19:40.588Z,96653.13
2018-05-16T04:24:34.151Z,96652.88
2018-05-16T04:29:28.955Z,96657.56
2018-05-16T04:34:23.236Z,96653.91
2018-05-16T04:39:16.759Z,96648.73
2018-05-16T04:44:10.275Z,96654.11
2018-05-16T04:49:03.868Z,96654.81
2018-05-16T04:53:57.417Z,96652.02
2018-05-16T04:58:51.724Z,96654.93
2018-05-16T05:03:46.083Z,96642.37
2018-05-16T05:08:39.576Z,96643.47
2018-05-16T05:13:33.423Z,96652.34
2018-05-16T05:18:26.982Z,96656.58
2018-05-16T05:23:20.455Z,96643.84
2018-05-16T05:28:14.015Z,96647.28
2018-05-16T05:33:07.639Z,96642.91
2018-05-16T05:38:01.234Z,96644.83
2018-05-16T05:42:55.623Z,96647.20
2018-05-16T05:47:50.173Z,96635.59
2018-05-16T05:52:43.884Z,96630.66
2018-05-16T05:57:37.439Z,96638.94
2018-05-16T06:02:31.245Z,96639.53
2018-05-16T06:07:25.956Z,96641.16
2018-05-16T06:12:19.704Z,96649.28
2018-05-16T06:17:17.653Z,96657.51
2018-05-16T06:22:11.153Z,96668.44
2018-05-16T06:27:04.801Z,96670.86
2018-05-16T06:31:58.228Z,96674.14
2018-05-16T06:36:52.726Z,96669.98
2018-05-16T06:41:46.995Z,96671.83
2018-05-16T06:46:40.464Z,96674.47
2018-05-16T06:51:35.500Z,96676.56
2018-05-16T06:56:29.048Z,96677.58
2018-05-16T07:01:23.334Z,96675.03
2018-05-16T07:06:16.839Z,96677.30
2018-05-16T07:11:10.368Z,96670.64
2018-05-16T07:16:04.667Z,96679.93
2018-05-16T07:20:58.339Z,96679.22
2018-05-16T07:25:52.695Z,96670.28
2018-05-16T07:30:46.910Z,96665.33
2018-05-16T07:35:40.423Z,96656.81
2018-05-16T07:40:33.986Z,96661.89
2018-05-16T07:45:28.076Z,96655.09
2018-05-16T07:50:23.351Z,96652.73
2018-05-16T07:55:20.728Z,96649.95
2018-05-16T08:00:28.046Z,96649.82
2018-05-16T08:10:53.482Z,96651.85
2018-05-16T08:15:48.097Z,96660.53
2018-05-16T08:20:43.369Z,96664.36
2018-05-16T08:31:08.458Z,96661.98
2018-05-16T08:36:03.017Z,96667.44
2018-05-16T08:40:57.183Z,96664.98
2018-05-16T08:45:51.351Z,96670.34
2018-05-16T08:50:46.928Z,96673.05
2018-05-16T08:55:40.626Z,96671.92
2018-05-16T09:00:35.412Z,96658.51
2018-05-16T09:05:29.014Z,96661.50
2018-05-16T09:10:33.414Z,96658.25
2018-05-16T09:15:30.976Z,96660.30
2018-05-16T09:20:28.193Z,96650.08
2018-05-16T09:30:52.891Z,96650.44
2018-05-16T09:35:46.907Z,96656.84
2018-05-16T09:40:41.826Z,96656.72
2018-05-16T09:45:37.247Z,96664.13
2018-05-16T09:56:03.212Z,96671.41
2018-05-16T10:00:56.916Z,96678.05
2018-05-16T10:11:21.152Z,96677.75
2018-05-16T10:16:15.926Z,96685.28
2018-05-16T10:26:39.598Z,96684.77
2018-05-16T10:31:34.799Z,96692.95
2018-05-16T10:36:31.243Z,96694.36
2018-05-16T10:41:25.881Z,96698.02
2018-05-16T10:46:20.602Z,96704.64
2018-05-16T10:51:14.591Z,96704.47
2018-05-16T10:56:21.889Z,96712.38
2018-05-16T11:06:48.664Z,96709.73
2018-05-16T11:11:43.079Z,96705.63
2018-05-16T11:16:39.030Z,96712.66
2018-05-16T11:21:33.537Z,96722.98
2018-05-16T11:26:31.566Z,96717.63
2018-05-16T11:31:27.335Z,96723.69
2018-05-16T11:41:24.117Z,96727.02
2018-05-16T11:46:19.566Z,96722.24
2018-05-16T11:56:17.551Z,96730.34
2018-05-16T12:01:13.213Z,96727.30
2018-05-16T12:06:11.184Z,96727.96
2018-05-16T12:16:41.823Z,96733.53
2018-05-16T12:21:41.508Z,96740.82
2018-05-16T12:26:46.131Z,96741.84
2018-05-16T12:31:46.354Z,96743.42
2018-05-16T12:36:42.395Z,96738.55
2018-05-16T12:41:42.787Z,96738.53
2018-05-16T12:52:10.512Z,96741.81
2018-05-16T12:57:06.075Z,96743.32
2018-05-16T13:01:59.949Z,96749.14
2018-05-16T13:06:56.431Z,96757.26
2018-05-16T13:11:54.656Z,96754.05
2018-05-16T13:16:53.917Z,96754.47
2018-05-16T13:21:52.869Z,96758.70
2018-05-16T13:27:00.876Z,96765.08
2018-05-16T13:37:12.245Z,96763.31
2018-05-16T13:42:13.283Z,96761.11
2018-05-16T13:47:14.980Z,96760.58
2018-05-16T13:52:13.605Z,96762.69
2018-05-16T13:57:15.285Z,96765.86
2018-05-16T14:02:13.730Z,96770.83
2018-05-16T14:07:14.780Z,96774.50
2018-05-16T14:12:13.824Z,96777.37
2018-05-16T14:17:18.613Z,96775.17
2018-05-16T14:27:46.577Z,96772.91
2018-05-16T14:32:49.991Z,96782.64
2018-05-16T14:37:45.412Z,96784.13
2018-05-16T14:42:40.891Z,96780.66
2018-05-16T14:47:34.705Z,96778.02
2018-05-16T14:52:30.120Z,96781.08
2018-05-16T14:57:25.161Z,96778.52
2018-05-16T15:02:19.275Z,96785.52
2018-05-16T15:07:12.902Z,96788.98
2018-05-16T15:12:06.819Z,96800.72
2018-05-16T15:17:04.914Z,96802.65
2018-05-16T15:21:59.813Z,96802.95
2018-05-16T15:26:54.364Z,96798.09
2018-05-16T15:31:48.210Z,96793.77
2018-05-16T15:41:41.092Z,96783.16
2018-05-16T15:46:36.330Z,96790.04
2018-05-16T15:51:30.854Z,96790.20
2018-05-16T15:56:24.565Z,96787.88
2018-05-16T16:01:18.220Z,96780.11
2018-05-16T16:06:12.654Z,96785.66
2018-05-16T16:11:08.170Z,96785.79
2018-05-16T16:16:02.151Z,96785.66
2018-05-16T16:20:56.286Z,96793.66
2018-05-16T16:25:51.856Z,96790.75
2018-05-16T16:30:45.640Z,96786.05
2018-05-16T16:41:10.925Z,96786.52
2018-05-16T16:46:06.584Z,96772.48
2018-05-16T16:51:00.065Z,96788.06
2018-05-16T16:55:53.535Z,96788.62
2018-05-16T17:00:47.082Z,96789.66
2018-05-16T17:05:40.610Z,96793.50
2018-05-16T17:10:34.294Z,96796.86
2018-05-16T17:15:27.788Z,96800.78
2018-05-16T17:20:21.913Z,96794.38
2018-05-16T17:25:16.242Z,96797.45
2018-05-16T17:30:09.762Z,96797.70
2018-05-16T17:35:03.943Z,96796.33
2018-05-16T17:39:58.155Z,96785.23
2018-05-16T17:44:51.873Z,96788.45
2018-05-16T17:49:46.203Z,96783.03
2018-05-16T17:54:39.891Z,96787.53
2018-05-16T17:59:33.372Z,96789.79
2018-05-16T18:04:26.847Z,96792.69
2018-05-16T18:09:21.227Z,96793.81
2018-05-16T18:20:15.662Z,96807.87
2018-05-16T18:25:10.067Z,96807.98
2018-05-16T18:30:04.965Z,96809.25
2018-05-16T18:34:59.808Z,96807.11
2018-05-16T18:39:54.334Z,96815.77
2018-05-16T18:44:48.130Z,96807.95
2018-05-16T18:49:42.982Z,96815.50
2018-05-16T18:54:37.482Z,96828.44
2018-05-16T18:59:31.258Z,96833.62
2018-05-16T19:04:25.712Z,96834.63
2018-05-16T19:09:19.451Z,96844.74
2018-05-16T19:14:13.205Z,96838.84
2018-05-16T19:28:17.369Z,96863.52
2018-05-16T19:33:11.762Z,96876.42
2018-05-16T19:38:05.462Z,96873.53
2018-05-16T19:42:59.190Z,96886.66
2018-05-16T19:47:52.976Z,96890.70
2018-05-16T19:52:47.981Z,96892.27
2018-05-16T19:57:43.544Z,96896.48
2018-05-16T20:02:38.052Z,96906.30
2018-05-16T20:07:31.751Z,96903.89
2018-05-16T20:12:26.446Z,96891.87
2018-05-16T20:17:20.180Z,96888.91
2018-05-16T20:22:15.143Z,96888.83
2018-05-16T20:27:08.872Z,96888.42
2018-05-16T20:32:03.519Z,96882.48
2018-05-16T20:36:57.749Z,96886.61
2018-05-16T20:41:52.353Z,96882.59
2018-05-16T20:46:46.149Z,96892.30
2018-05-16T20:51:39.847Z,96898.41
2018-05-16T20:56:33.563Z,96904.72
2018-05-16T21:01:27.226Z,96912.36
2018-05-16T21:06:23.061Z,96921.30
2018-05-16T21:11:17.421Z,96913.07
2018-05-16T21:16:11.196Z,96923.94
2018-05-16T21:21:05.687Z,96928.02
2018-05-16T21:25:59.422Z,96932.70
2018-05-16T21:30:55.916Z,96932.70
2018-05-16T21:35:49.660Z,96933.53
2018-05-16T21:40:43.595Z,96937.67
2018-05-16T21:45:38.239Z,96932.44
2018-05-16T21:50:32.099Z,96944.13
2018-05-16T21:55:25.881Z,96938.03
2018-05-16T22:00:20.926Z,96946.73
2018-05-16T22:05:15.106Z,96945.20
2018-05-16T22:10:08.910Z,96948.62
2018-05-16T22:15:03.484Z,96945.88
2018-05-16T22:19:57.186Z,96950.88
2018-05-16T22:24:51.592Z,96948.50
2018-05-16T22:29:45.403Z,96932.28
2018-05-16T22:34:45.377Z,96925.62
2018-05-16T22:39:44.753Z,96933.44
2018-05-16T22:44:39.545Z,96922.59
2018-05-16T22:49:33.623Z,96940.48
2018-05-16T22:54:28.928Z,96940.97
2018-05-16T22:59:22.922Z,96944.51
2018-05-16T23:04:17.572Z,96940.56
2018-05-16T23:09:11.943Z,96939.36
2018-05-16T23:14:05.795Z,96928.42
2018-05-16T23:18:59.618Z,96926.12
2018-05-16T23:23:57.766Z,96930.73
2018-05-16T23:28:52.478Z,96929.98
2018-05-16T23:33:46.435Z,96926.55
2018-05-16T23:38:41.066Z,96930.16
2018-05-16T23:43:34.895Z,96918.25
2018-05-16T23:48:28.664Z,96914.09
2018-05-16T23:53:22.647Z,96917.41
2018-05-16T23:58:17.237Z,96928.69
